Terminal Aerodrome Forecast
Issued by NWS

Home | Current Version | Previous Version | Text Only | Print | Product List | Glossary On
Versions: 1 2 3 4 5 6 7 8 9 10 11 12 13 14 15 16 17 18 19 20 21 22
000
FTUS43 KDLH 172300
TAFBRD
TAF
KBRD 172327Z 1800/1824 36003KT P6SM FEW002
     FM180300 08007KT P6SM SCT015
     FM181200 13005KT P6SM FEW015
     FM181800 15007KT P6SM SCT015 SCT035=

USA.gov is the U.S. government's official web portal to all federal, state and local government web resources and services.